sensor_id;sensor_type;location;lat;lon;timestamp;pressure;altitude;pressure_sealevel;temperature;humidity
65758;BME280;52495;52.208;5.158;2022-07-23T00:01:18;101905.44;;;17.21;71.05
65758;BME280;52495;52.208;5.158;2022-07-23T00:03:45;101905.53;;;17.18;70.78
65758;BME280;52495;52.208;5.158;2022-07-23T00:06:13;101898.59;;;17.17;71.05
65758;BME280;52495;52.208;5.158;2022-07-23T00:08:40;101898.53;;;17.18;70.99
65758;BME280;52495;52.208;5.158;2022-07-23T00:11:07;101891.66;;;17.16;71.29
65758;BME280;52495;52.208;5.158;2022-07-23T00:13:34;101896.13;;;17.12;71.27
65758;BME280;52495;52.208;5.158;2022-07-23T00:16:01;101898.59;;;17.17;71.01
65758;BME280;52495;52.208;5.158;2022-07-23T00:18:29;101886.50;;;17.14;71.00
65758;BME280;52495;52.208;5.158;2022-07-23T00:20:55;101897.91;;;17.10;71.20
65758;BME280;52495;52.208;5.158;2022-07-23T00:23:24;101894.63;;;17.03;71.79
65758;BME280;52495;52.208;5.158;2022-07-23T00:25:51;101894.69;;;17.00;71.72
65758;BME280;52495;52.208;5.158;2022-07-23T00:28:18;101897.31;;;17.00;71.79
65758;BME280;52495;52.208;5.158;2022-07-23T00:30:45;101893.09;;;16.94;71.88
65758;BME280;52495;52.208;5.158;2022-07-23T00:33:13;101888.66;;;16.98;71.64
65758;BME280;52495;52.208;5.158;2022-07-23T00:35:40;101886.13;;;16.96;71.38
65758;BME280;52495;52.208;5.158;2022-07-23T00:38:09;101892.41;;;16.88;71.70
65758;BME280;52495;52.208;5.158;2022-07-23T00:40:38;101881.97;;;16.88;71.56
65758;BME280;52495;52.208;5.158;2022-07-23T00:43:05;101886.31;;;16.87;71.33
65758;BME280;52495;52.208;5.158;2022-07-23T00:45:32;101890.84;;;16.80;71.74
65758;BME280;52495;52.208;5.158;2022-07-23T00:47:59;101880.56;;;16.74;71.84
65758;BME280;52495;52.208;5.158;2022-07-23T00:50:26;101882.47;;;16.69;71.93
65758;BME280;52495;52.208;5.158;2022-07-23T00:52:55;101874.66;;;16.67;72.08
65758;BME280;52495;52.208;5.158;2022-07-23T00:55:22;101870.25;;;16.71;71.86
65758;BME280;52495;52.208;5.158;2022-07-23T00:57:52;101870.25;;;16.69;71.69
65758;BME280;52495;52.208;5.158;2022-07-23T01:00:21;101870.47;;;16.62;72.07
65758;BME280;52495;52.208;5.158;2022-07-23T01:02:48;101864.56;;;16.55;71.94
65758;BME280;52495;52.208;5.158;2022-07-23T01:05:16;101865.56;;;16.49;72.41
65758;BME280;52495;52.208;5.158;2022-07-23T01:07:47;101871.63;;;16.50;72.35
65758;BME280;52495;52.208;5.158;2022-07-23T01:10:15;101870.84;;;16.46;72.31
65758;BME280;52495;52.208;5.158;2022-07-23T01:13:04;101862.22;;;16.44;72.50
65758;BME280;52495;52.208;5.158;2022-07-23T01:15:32;101861.53;;;16.37;72.57
65758;BME280;52495;52.208;5.158;2022-07-23T01:17:59;101852.06;;;16.33;72.85
65758;BME280;52495;52.208;5.158;2022-07-23T01:20:27;101852.25;;;16.26;73.26
65758;BME280;52495;52.208;5.158;2022-07-23T01:22:56;101854.84;;;16.26;73.51
65758;BME280;52495;52.208;5.158;2022-07-23T01:25:23;101855.69;;;16.28;73.57
65758;BME280;52495;52.208;5.158;2022-07-23T01:28:01;101854.03;;;16.25;73.58
65758;BME280;52495;52.208;5.158;2022-07-23T01:30:28;101846.19;;;16.25;73.38
65758;BME280;52495;52.208;5.158;2022-07-23T01:32:56;101848.88;;;16.22;73.31
65758;BME280;52495;52.208;5.158;2022-07-23T01:35:23;101854.97;;;16.22;73.62
65758;BME280;52495;52.208;5.158;2022-07-23T01:37:53;101852.34;;;16.22;73.35
65758;BME280;52495;52.208;5.158;2022-07-23T01:40:22;101855.84;;;16.21;73.30
65758;BME280;52495;52.208;5.158;2022-07-23T01:42:49;101836.88;;;16.16;73.16
65758;BME280;52495;52.208;5.158;2022-07-23T01:45:17;101844.00;;;16.08;73.17
65758;BME280;52495;52.208;5.158;2022-07-23T01:47:48;101848.38;;;16.06;73.43
65758;BME280;52495;52.208;5.158;2022-07-23T01:50:16;101848.38;;;16.06;73.17
65758;BME280;52495;52.208;5.158;2022-07-23T01:53:03;101851.03;;;16.04;73.22
65758;BME280;52495;52.208;5.158;2022-07-23T01:55:31;101856.25;;;16.04;73.16
65758;BME280;52495;52.208;5.158;2022-07-23T01:57:58;101852.88;;;16.01;73.10
65758;BME280;52495;52.208;5.158;2022-07-23T02:00:28;101850.28;;;15.99;73.01
65758;BME280;52495;52.208;5.158;2022-07-23T02:02:55;101850.50;;;15.90;73.09
65758;BME280;52495;52.208;5.158;2022-07-23T02:05:23;101847.13;;;15.85;73.18
65758;BME280;52495;52.208;5.158;2022-07-23T02:07:50;101840.19;;;15.84;73.37
65758;BME280;52495;52.208;5.158;2022-07-23T02:10:17;101848.94;;;15.81;72.86
65758;BME280;52495;52.208;5.158;2022-07-23T02:12:46;101856.81;;;15.78;72.99
65758;BME280;52495;52.208;5.158;2022-07-23T02:15:13;101853.47;;;15.73;72.69
65758;BME280;52495;52.208;5.158;2022-07-23T02:17:40;101849.47;;;15.58;73.18
65758;BME280;52495;52.208;5.158;2022-07-23T02:20:09;101850.38;;;15.55;73.22
65758;BME280;52495;52.208;5.158;2022-07-23T02:22:36;101848.75;;;15.50;73.09
65758;BME280;52495;52.208;5.158;2022-07-23T02:25:04;101838.56;;;15.40;73.73
65758;BME280;52495;52.208;5.158;2022-07-23T02:27:31;101837.00;;;15.31;74.49
65758;BME280;52495;52.208;5.158;2022-07-23T02:29:59;101846.56;;;15.31;74.10
65758;BME280;52495;52.208;5.158;2022-07-23T02:32:27;101848.47;;;15.21;74.79
65758;BME280;52495;52.208;5.158;2022-07-23T02:34:54;101859.66;;;15.26;74.58
65758;BME280;52495;52.208;5.158;2022-07-23T02:37:21;101856.13;;;15.30;74.48
65758;BME280;52495;52.208;5.158;2022-07-23T02:39:48;101860.38;;;15.35;74.01
65758;BME280;52495;52.208;5.158;2022-07-23T02:42:15;101861.25;;;15.33;73.64
65758;BME280;52495;52.208;5.158;2022-07-23T02:44:43;101864.75;;;15.31;73.13
65758;BME280;52495;52.208;5.158;2022-07-23T02:47:11;101865.84;;;15.21;73.54
65758;BME280;52495;52.208;5.158;2022-07-23T02:49:38;101859.03;;;15.13;73.92
65758;BME280;52495;52.208;5.158;2022-07-23T02:52:05;101860.91;;;15.08;74.25
65758;BME280;52495;52.208;5.158;2022-07-23T02:54:32;101872.19;;;15.06;74.73
65758;BME280;52495;52.208;5.158;2022-07-23T02:56:59;101875.69;;;15.05;74.97
65758;BME280;52495;52.208;5.158;2022-07-23T02:59:26;101876.56;;;15.05;74.52
65758;BME280;52495;52.208;5.158;2022-07-23T03:01:52;101876.53;;;15.07;74.49
65758;BME280;52495;52.208;5.158;2022-07-23T03:04:20;101870.47;;;15.06;74.34
65758;BME280;52495;52.208;5.158;2022-07-23T03:06:47;101875.78;;;15.00;75.07
65758;BME280;52495;52.208;5.158;2022-07-23T03:09:14;101873.16;;;15.01;74.73
65758;BME280;52495;52.208;5.158;2022-07-23T03:11:41;101882.66;;;15.04;74.58
65758;BME280;52495;52.208;5.158;2022-07-23T03:14:08;101882.59;;;15.07;74.88
65758;BME280;52495;52.208;5.158;2022-07-23T03:16:38;101883.47;;;15.06;74.30
65758;BME280;52495;52.208;5.158;2022-07-23T03:19:05;101880.09;;;15.02;74.60
65758;BME280;52495;52.208;5.158;2022-07-23T03:21:33;101886.22;;;14.98;74.80
65758;BME280;52495;52.208;5.158;2022-07-23T03:24:04;101885.34;;;14.99;74.89
65758;BME280;52495;52.208;5.158;2022-07-23T03:26:31;101880.88;;;15.05;74.89
65758;BME280;52495;52.208;5.158;2022-07-23T03:28:58;101884.25;;;15.11;74.65
65758;BME280;52495;52.208;5.158;2022-07-23T03:31:26;101887.66;;;15.13;74.52
65758;BME280;52495;52.208;5.158;2022-07-23T03:33:53;101877.25;;;15.13;74.68
65758;BME280;52495;52.208;5.158;2022-07-23T03:36:20;101882.56;;;15.09;75.07
65758;BME280;52495;52.208;5.158;2022-07-23T03:38:48;101882.56;;;15.09;75.13
65758;BME280;52495;52.208;5.158;2022-07-23T03:41:16;101875.63;;;15.08;75.78
65758;BME280;52495;52.208;5.158;2022-07-23T03:43:43;101875.69;;;15.06;75.60
65758;BME280;52495;52.208;5.158;2022-07-23T03:46:11;101875.63;;;15.09;75.68
65758;BME280;52495;52.208;5.158;2022-07-23T03:48:37;101876.38;;;15.14;75.83
65758;BME280;52495;52.208;5.158;2022-07-23T03:51:04;101863.34;;;15.16;75.64
65758;BME280;52495;52.208;5.158;2022-07-23T03:53:31;101864.19;;;15.16;75.45
65758;BME280;52495;52.208;5.158;2022-07-23T03:56:02;101860.75;;;15.14;75.39
65758;BME280;52495;52.208;5.158;2022-07-23T03:58:29;101864.25;;;15.13;75.07
65758;BME280;52495;52.208;5.158;2022-07-23T04:00:56;101857.31;;;15.14;75.53
65758;BME280;52495;52.208;5.158;2022-07-23T04:03:23;101856.50;;;15.12;75.45
65758;BME280;52495;52.208;5.158;2022-07-23T04:05:49;101853.94;;;15.09;75.81
65758;BME280;52495;52.208;5.158;2022-07-23T04:08:16;101858.19;;;15.13;75.59
65758;BME280;52495;52.208;5.158;2022-07-23T04:10:48;101855.53;;;15.16;75.54
65758;BME280;52495;52.208;5.158;2022-07-23T04:13:16;101874.59;;;15.16;75.16
65758;BME280;52495;52.208;5.158;2022-07-23T04:15:43;101868.59;;;15.13;75.17
65758;BME280;52495;52.208;5.158;2022-07-23T04:18:09;101867.84;;;15.08;75.09
65758;BME280;52495;52.208;5.158;2022-07-23T04:20:53;101877.38;;;15.07;75.09
65758;BME280;52495;52.208;5.158;2022-07-23T04:23:20;101873.03;;;15.09;75.06
65758;BME280;52495;52.208;5.158;2022-07-23T04:25:47;101873.09;;;15.05;75.14
65758;BME280;52495;52.208;5.158;2022-07-23T04:28:15;101869.66;;;15.04;75.28
65758;BME280;52495;52.208;5.158;2022-07-23T04:30:42;101870.56;;;15.01;75.41
65758;BME280;52495;52.208;5.158;2022-07-23T04:33:10;101870.47;;;15.05;75.65
65758;BME280;52495;52.208;5.158;2022-07-23T04:35:38;101874.75;;;15.10;75.26
65758;BME280;52495;52.208;5.158;2022-07-23T04:38:15;101879.91;;;15.12;75.00
65758;BME280;52495;52.208;5.158;2022-07-23T04:40:42;101882.44;;;15.13;75.29
65758;BME280;52495;52.208;5.158;2022-07-23T04:43:09;101882.50;;;15.12;75.11
65758;BME280;52495;52.208;5.158;2022-07-23T04:45:44;101880.00;;;15.07;75.30
65758;BME280;52495;52.208;5.158;2022-07-23T04:48:11;101887.78;;;15.07;75.61
65758;BME280;52495;52.208;5.158;2022-07-23T04:50:38;101886.97;;;15.05;76.26
65758;BME280;52495;52.208;5.158;2022-07-23T04:53:05;101890.34;;;15.09;76.25
65758;BME280;52495;52.208;5.158;2022-07-23T04:55:32;101887.66;;;15.13;76.43
65758;BME280;52495;52.208;5.158;2022-07-23T04:57:59;101896.13;;;15.23;76.39
65758;BME280;52495;52.208;5.158;2022-07-23T05:00:25;101893.38;;;15.32;75.59
65758;BME280;52495;52.208;5.158;2022-07-23T05:02:54;101897.53;;;15.41;75.43
65758;BME280;52495;52.208;5.158;2022-07-23T05:05:21;101891.38;;;15.45;75.39
65758;BME280;52495;52.208;5.158;2022-07-23T05:07:49;101891.38;;;15.45;75.34
65758;BME280;52495;52.208;5.158;2022-07-23T05:10:16;101888.72;;;15.47;75.76
65758;BME280;52495;52.208;5.158;2022-07-23T05:12:43;101886.97;;;15.49;75.96
65758;BME280;52495;52.208;5.158;2022-07-23T05:15:10;101898.16;;;15.53;75.93
65758;BME280;52495;52.208;5.158;2022-07-23T05:17:37;101882.44;;;15.57;75.87
65758;BME280;52495;52.208;5.158;2022-07-23T05:20:11;101877.94;;;15.66;75.90
65758;BME280;52495;52.208;5.158;2022-07-23T05:22:39;101882.06;;;15.74;75.83
65758;BME280;52495;52.208;5.158;2022-07-23T05:25:06;101885.63;;;15.70;76.31
65758;BME280;52495;52.208;5.158;2022-07-23T05:27:34;101874.94;;;15.83;75.96
65758;BME280;52495;52.208;5.158;2022-07-23T05:30:01;101888.53;;;15.97;75.68
65758;BME280;52495;52.208;5.158;2022-07-23T05:32:31;101891.72;;;16.10;75.47
65758;BME280;52495;52.208;5.158;2022-07-23T05:35:07;101891.44;;;16.22;75.24
65758;BME280;52495;52.208;5.158;2022-07-23T05:37:39;101903.22;;;16.37;74.89
65758;BME280;52495;52.208;5.158;2022-07-23T05:40:08;101904.69;;;16.49;74.46
65758;BME280;52495;52.208;5.158;2022-07-23T05:42:36;101904.44;;;16.59;74.32
65758;BME280;52495;52.208;5.158;2022-07-23T05:45:05;101912.69;;;16.76;72.27
65758;BME280;52495;52.208;5.158;2022-07-23T05:47:40;101901.19;;;16.49;72.50
65758;BME280;52495;52.208;5.158;2022-07-23T05:50:08;101905.72;;;16.42;71.97
65758;BME280;52495;52.208;5.158;2022-07-23T05:52:47;101913.53;;;16.42;72.03
65758;BME280;52495;52.208;5.158;2022-07-23T05:55:29;101914.09;;;16.55;71.97
65758;BME280;52495;52.208;5.158;2022-07-23T05:57:58;101922.88;;;16.51;71.94
65758;BME280;52495;52.208;5.158;2022-07-23T06:00:27;101923.69;;;16.54;71.67
65758;BME280;52495;52.208;5.158;2022-07-23T06:02:54;101918.41;;;16.56;72.05
65758;BME280;52495;52.208;5.158;2022-07-23T06:05:21;101916.75;;;16.53;72.22
65758;BME280;52495;52.208;5.158;2022-07-23T06:07:49;101924.25;;;16.66;71.58
65758;BME280;52495;52.208;5.158;2022-07-23T06:10:16;101921.31;;;16.78;71.60
65758;BME280;52495;52.208;5.158;2022-07-23T06:12:43;101913.09;;;16.95;70.78
65758;BME280;52495;52.208;5.158;2022-07-23T06:15:10;101914.38;;;17.12;69.49
65758;BME280;52495;52.208;5.158;2022-07-23T06:17:37;101910.00;;;17.12;69.49
65758;BME280;52495;52.208;5.158;2022-07-23T06:20:05;101902.66;;;17.27;68.42
65758;BME280;52495;52.208;5.158;2022-07-23T06:22:32;101916.72;;;17.21;68.72
65758;BME280;52495;52.208;5.158;2022-07-23T06:25:01;101909.59;;;17.28;68.98
65758;BME280;52495;52.208;5.158;2022-07-23T06:27:28;101913.69;;;17.37;69.00
65758;BME280;52495;52.208;5.158;2022-07-23T06:29:55;101920.28;;;17.50;68.50
65758;BME280;52495;52.208;5.158;2022-07-23T06:32:21;101920.75;;;17.63;67.64
65758;BME280;52495;52.208;5.158;2022-07-23T06:34:48;101923.28;;;17.66;67.21
65758;BME280;52495;52.208;5.158;2022-07-23T06:37:15;101926.88;;;17.62;66.68
65758;BME280;52495;52.208;5.158;2022-07-23T06:39:42;101928.34;;;17.72;65.70
65758;BME280;52495;52.208;5.158;2022-07-23T06:42:10;101928.50;;;17.66;65.02
65758;BME280;52495;52.208;5.158;2022-07-23T06:44:42;101928.44;;;17.68;65.72
65758;BME280;52495;52.208;5.158;2022-07-23T06:47:09;101920.88;;;17.88;65.65
65758;BME280;52495;52.208;5.158;2022-07-23T06:49:36;101925.88;;;17.96;65.39
65758;BME280;52495;52.208;5.158;2022-07-23T06:52:02;101928.84;;;18.14;64.87
65758;BME280;52495;52.208;5.158;2022-07-23T06:54:33;101934.47;;;18.28;63.02
65758;BME280;52495;52.208;5.158;2022-07-23T06:57:00;101927.78;;;18.19;62.87
65758;BME280;52495;52.208;5.158;2022-07-23T06:59:28;101933.25;;;18.12;63.06
65758;BME280;52495;52.208;5.158;2022-07-23T07:01:54;101927.13;;;18.13;62.54
65758;BME280;52495;52.208;5.158;2022-07-23T07:04:22;101942.44;;;17.67;62.05
65758;BME280;52495;52.208;5.158;2022-07-23T07:06:49;101937.34;;;17.92;61.99
65758;BME280;52495;52.208;5.158;2022-07-23T07:09:16;101933.03;;;17.89;62.62
65758;BME280;52495;52.208;5.158;2022-07-23T07:11:43;101937.19;;;17.97;62.10
65758;BME280;52495;52.208;5.158;2022-07-23T07:14:10;101929.94;;;18.07;62.09
65758;BME280;52495;52.208;5.158;2022-07-23T07:16:38;101926.47;;;18.06;61.91
65758;BME280;52495;52.208;5.158;2022-07-23T07:19:04;101935.13;;;18.08;62.16
65758;BME280;52495;52.208;5.158;2022-07-23T07:21:31;101944.34;;;18.20;61.76
65758;BME280;52495;52.208;5.158;2022-07-23T07:23:58;101945.97;;;18.24;60.78
65758;BME280;52495;52.208;5.158;2022-07-23T07:26:24;101946.94;;;18.20;61.27
65758;BME280;52495;52.208;5.158;2022-07-23T07:28:51;101945.19;;;18.20;61.72
65758;BME280;52495;52.208;5.158;2022-07-23T07:31:18;101948.69;;;18.19;61.30
65758;BME280;52495;52.208;5.158;2022-07-23T07:33:46;101948.06;;;18.40;61.19
65758;BME280;52495;52.208;5.158;2022-07-23T07:36:13;101950.53;;;18.44;61.41
65758;BME280;52495;52.208;5.158;2022-07-23T07:38:39;101962.63;;;18.47;60.69
65758;BME280;52495;52.208;5.158;2022-07-23T07:41:06;101962.88;;;18.41;60.32
65758;BME280;52495;52.208;5.158;2022-07-23T07:43:35;101965.88;;;18.55;60.21
65758;BME280;52495;52.208;5.158;2022-07-23T07:46:02;101957.78;;;18.63;59.96
65758;BME280;52495;52.208;5.158;2022-07-23T07:48:28;101951.47;;;18.69;59.34
65758;BME280;52495;52.208;5.158;2022-07-23T07:50:57;101956.00;;;18.90;58.15
65758;BME280;52495;52.208;5.158;2022-07-23T07:53:24;101960.25;;;18.93;58.51
65758;BME280;52495;52.208;5.158;2022-07-23T07:55:50;101950.16;;;19.09;58.31
65758;BME280;52495;52.208;5.158;2022-07-23T07:58:17;101957.63;;;18.93;56.90
65758;BME280;52495;52.208;5.158;2022-07-23T08:00:44;101954.91;;;18.71;57.31
65758;BME280;52495;52.208;5.158;2022-07-23T08:03:11;101970.31;;;19.05;56.06
65758;BME280;52495;52.208;5.158;2022-07-23T08:05:38;101960.72;;;19.06;57.10
65758;BME280;52495;52.208;5.158;2022-07-23T08:08:06;101962.72;;;19.23;56.83
65758;BME280;52495;52.208;5.158;2022-07-23T08:10:35;101965.06;;;19.31;56.40
65758;BME280;52495;52.208;5.158;2022-07-23T08:13:02;101969.81;;;18.94;56.86
65758;BME280;52495;52.208;5.158;2022-07-23T08:15:29;101968.19;;;19.17;56.49
65758;BME280;52495;52.208;5.158;2022-07-23T08:17:57;101962.31;;;19.35;56.17
65758;BME280;52495;52.208;5.158;2022-07-23T08:20:25;101962.06;;;19.41;55.21
65758;BME280;52495;52.208;5.158;2022-07-23T08:22:53;101963.38;;;19.53;55.29
65758;BME280;52495;52.208;5.158;2022-07-23T08:25:24;101962.69;;;19.72;55.53
65758;BME280;52495;52.208;5.158;2022-07-23T08:27:51;101958.88;;;19.81;55.45
65758;BME280;52495;52.208;5.158;2022-07-23T08:30:18;101959.09;;;19.98;55.29
65758;BME280;52495;52.208;5.158;2022-07-23T08:32:54;101967.69;;;20.02;54.49
65758;BME280;52495;52.208;5.158;2022-07-23T08:35:27;101954.84;;;19.96;54.53
65758;BME280;52495;52.208;5.158;2022-07-23T08:37:54;101958.56;;;20.12;53.89
65758;BME280;52495;52.208;5.158;2022-07-23T08:40:22;101959.59;;;20.08;53.77
65758;BME280;52495;52.208;5.158;2022-07-23T08:42:50;101954.59;;;20.02;53.78
65758;BME280;52495;52.208;5.158;2022-07-23T08:45:18;101959.47;;;20.11;53.86
65758;BME280;52495;52.208;5.158;2022-07-23T08:47:48;101961.47;;;20.27;53.86
65758;BME280;52495;52.208;5.158;2022-07-23T08:50:16;101960.97;;;20.39;53.06
65758;BME280;52495;52.208;5.158;2022-07-23T08:52:43;101968.88;;;20.60;52.79
65758;BME280;52495;52.208;5.158;2022-07-23T08:55:10;101962.19;;;20.73;52.99
65758;BME280;52495;52.208;5.158;2022-07-23T08:57:38;101964.47;;;20.83;52.64
65758;BME280;52495;52.208;5.158;2022-07-23T09:00:06;101964.16;;;20.90;52.48
65758;BME280;52495;52.208;5.158;2022-07-23T09:02:40;101968.88;;;21.03;52.06
65758;BME280;52495;52.208;5.158;2022-07-23T09:05:07;101959.28;;;21.02;51.50
65758;BME280;52495;52.208;5.158;2022-07-23T09:07:35;101969.53;;;20.87;51.86
65758;BME280;52495;52.208;5.158;2022-07-23T09:10:07;101968.53;;;20.90;52.13
65758;BME280;52495;52.208;5.158;2022-07-23T09:12:35;101972.53;;;20.99;51.92
65758;BME280;52495;52.208;5.158;2022-07-23T09:15:08;101979.41;;;21.01;52.42
65758;BME280;52495;52.208;5.158;2022-07-23T09:17:40;101982.44;;;21.13;51.77
65758;BME280;52495;52.208;5.158;2022-07-23T09:20:09;101969.03;;;21.19;51.58
65758;BME280;52495;52.208;5.158;2022-07-23T09:22:36;101959.13;;;21.26;51.67
65758;BME280;52495;52.208;5.158;2022-07-23T09:25:06;101971.34;;;21.46;51.20
65758;BME280;52495;52.208;5.158;2022-07-23T09:27:47;101972.38;;;21.43;50.08
65758;BME280;52495;52.208;5.158;2022-07-23T09:30:16;101973.72;;;21.52;50.02
65758;BME280;52495;52.208;5.158;2022-07-23T09:32:43;101976.78;;;21.62;49.80
65758;BME280;52495;52.208;5.158;2022-07-23T09:35:10;101970.69;;;21.61;49.83
65758;BME280;52495;52.208;5.158;2022-07-23T09:37:37;101974.03;;;21.65;49.97
65758;BME280;52495;52.208;5.158;2022-07-23T09:40:05;101980.28;;;21.62;50.59
65758;BME280;52495;52.208;5.158;2022-07-23T09:42:32;101974.44;;;21.75;50.40
65758;BME280;52495;52.208;5.158;2022-07-23T09:44:59;101974.22;;;21.79;50.52
65758;BME280;52495;52.208;5.158;2022-07-23T09:47:28;101971.97;;;21.91;49.87
65758;BME280;52495;52.208;5.158;2022-07-23T09:50:00;101969.69;;;21.83;49.61
65758;BME280;52495;52.208;5.158;2022-07-23T09:52:29;101976.09;;;21.96;49.38
65758;BME280;52495;52.208;5.158;2022-07-23T09:55:01;101973.09;;;22.04;49.37
65758;BME280;52495;52.208;5.158;2022-07-23T09:57:29;101970.25;;;22.26;49.22
65758;BME280;52495;52.208;5.158;2022-07-23T09:59:58;101962.47;;;22.25;49.14
65758;BME280;52495;52.208;5.158;2022-07-23T10:02:28;101969.03;;;21.97;49.77
65758;BME280;52495;52.208;5.158;2022-07-23T10:05:16;101975.53;;;21.90;49.92
65758;BME280;52495;52.208;5.158;2022-07-23T10:08:02;101973.88;;;21.87;49.19
65758;BME280;52495;52.208;5.158;2022-07-23T10:10:50;101978.19;;;21.88;49.90
65758;BME280;52495;52.208;5.158;2022-07-23T10:13:38;101973.09;;;22.04;49.35
65758;BME280;52495;52.208;5.158;2022-07-23T10:16:27;101974.28;;;22.16;49.04
65758;BME280;52495;52.208;5.158;2022-07-23T10:18:56;101972.84;;;22.28;49.41
65758;BME280;52495;52.208;5.158;2022-07-23T10:21:26;101971.34;;;22.40;48.85
65758;BME280;52495;52.208;5.158;2022-07-23T10:24:04;101962.13;;;22.31;48.51
65758;BME280;52495;52.208;5.158;2022-07-23T10:26:40;101966.72;;;22.27;48.59
65758;BME280;52495;52.208;5.158;2022-07-23T10:29:17;101966.41;;;22.34;48.99
65758;BME280;52495;52.208;5.158;2022-07-23T10:31:54;101968.09;;;22.54;48.54
65758;BME280;52495;52.208;5.158;2022-07-23T10:34:31;101967.50;;;22.29;48.78
65758;BME280;52495;52.208;5.158;2022-07-23T10:37:07;101963.47;;;22.40;48.77
65758;BME280;52495;52.208;5.158;2022-07-23T10:39:39;101964.22;;;22.24;48.23
65758;BME280;52495;52.208;5.158;2022-07-23T10:42:10;101959.50;;;22.68;47.67
65758;BME280;52495;52.208;5.158;2022-07-23T10:44:41;101965.75;;;22.48;48.07
65758;BME280;52495;52.208;5.158;2022-07-23T10:47:08;101954.16;;;22.52;47.96
65758;BME280;52495;52.208;5.158;2022-07-23T10:50:18;101954.00;;;22.72;48.28
65758;BME280;52495;52.208;5.158;2022-07-23T10:53:09;101952.81;;;22.78;47.33
65758;BME280;52495;52.208;5.158;2022-07-23T10:55:41;101955.81;;;23.06;46.97
65758;BME280;52495;52.208;5.158;2022-07-23T10:58:08;101950.53;;;23.23;46.38
65758;BME280;52495;52.208;5.158;2022-07-23T11:00:36;101948.03;;;23.20;46.78
65758;BME280;52495;52.208;5.158;2022-07-23T11:03:05;101951.69;;;23.17;46.27
65758;BME280;52495;52.208;5.158;2022-07-23T11:05:53;101945.22;;;22.89;46.95
65758;BME280;52495;52.208;5.158;2022-07-23T11:08:19;101952.94;;;23.10;45.79
65758;BME280;52495;52.208;5.158;2022-07-23T11:10:49;101950.84;;;22.99;46.66
65758;BME280;52495;52.208;5.158;2022-07-23T11:13:36;101949.06;;;23.17;46.15
65758;BME280;52495;52.208;5.158;2022-07-23T11:16:12;101940.47;;;23.14;46.07
65758;BME280;52495;52.208;5.158;2022-07-23T11:19:05;101949.75;;;23.21;45.69
65758;BME280;52495;52.208;5.158;2022-07-23T11:21:47;101952.91;;;22.77;46.07
65758;BME280;52495;52.208;5.158;2022-07-23T11:24:18;101947.81;;;23.25;45.35
65758;BME280;52495;52.208;5.158;2022-07-23T11:26:48;101943.31;;;23.27;46.19
65758;BME280;52495;52.208;5.158;2022-07-23T11:29:40;101951.75;;;23.16;45.80
65758;BME280;52495;52.208;5.158;2022-07-23T11:32:18;101951.09;;;22.95;47.21
65758;BME280;52495;52.208;5.158;2022-07-23T11:34:46;101956.94;;;23.17;47.65
65758;BME280;52495;52.208;5.158;2022-07-23T11:37:28;101949.59;;;23.40;47.17
65758;BME280;52495;52.208;5.158;2022-07-23T11:39:56;101953.81;;;23.60;46.38
65758;BME280;52495;52.208;5.158;2022-07-23T11:42:24;101960.28;;;23.71;46.01
65758;BME280;52495;52.208;5.158;2022-07-23T11:44:51;101952.28;;;23.88;45.34
65758;BME280;52495;52.208;5.158;2022-07-23T11:47:22;101961.63;;;23.94;44.74
65758;BME280;52495;52.208;5.158;2022-07-23T11:49:53;101952.13;;;24.07;44.43
65758;BME280;52495;52.208;5.158;2022-07-23T11:52:21;101955.00;;;24.03;44.49
65758;BME280;52495;52.208;5.158;2022-07-23T11:54:51;101957.47;;;23.90;44.28
65758;BME280;52495;52.208;5.158;2022-07-23T11:57:19;101956.34;;;23.94;43.89
65758;BME280;52495;52.208;5.158;2022-07-23T11:59:47;101954.50;;;23.80;43.44
65758;BME280;52495;52.208;5.158;2022-07-23T12:02:15;101953.81;;;23.92;44.15
65758;BME280;52495;52.208;5.158;2022-07-23T12:04:44;101950.97;;;24.28;42.88
65758;BME280;52495;52.208;5.158;2022-07-23T12:07:30;101944.78;;;24.13;42.68
65758;BME280;52495;52.208;5.158;2022-07-23T12:10:00;101948.09;;;24.47;42.29
65758;BME280;52495;52.208;5.158;2022-07-23T12:12:34;101954.00;;;24.36;42.18
65758;BME280;52495;52.208;5.158;2022-07-23T12:15:02;101938.09;;;24.37;42.20
65758;BME280;52495;52.208;5.158;2022-07-23T12:17:30;101939.03;;;24.67;42.18
65758;BME280;52495;52.208;5.158;2022-07-23T12:19:59;101935.19;;;24.73;41.09
65758;BME280;52495;52.208;5.158;2022-07-23T12:22:33;101936.78;;;24.75;40.80
65758;BME280;52495;52.208;5.158;2022-07-23T12:25:05;101938.22;;;24.81;41.02
65758;BME280;52495;52.208;5.158;2022-07-23T12:27:33;101927.88;;;24.92;40.58
65758;BME280;52495;52.208;5.158;2022-07-23T12:30:18;101935.22;;;24.87;40.88
65758;BME280;52495;52.208;5.158;2022-07-23T12:32:46;101927.19;;;25.03;40.31
65758;BME280;52495;52.208;5.158;2022-07-23T12:35:13;101931.72;;;25.15;40.28
65758;BME280;52495;52.208;5.158;2022-07-23T12:37:41;101928.19;;;25.29;39.79
65758;BME280;52495;52.208;5.158;2022-07-23T12:40:27;101925.19;;;25.21;39.41
65758;BME280;52495;52.208;5.158;2022-07-23T12:42:56;101925.69;;;24.99;40.32
65758;BME280;52495;52.208;5.158;2022-07-23T12:45:24;101918.88;;;25.24;39.92
65758;BME280;52495;52.208;5.158;2022-07-23T12:48:00;101910.63;;;25.28;39.57
65758;BME280;52495;52.208;5.158;2022-07-23T12:50:43;101917.25;;;24.78;40.39
65758;BME280;52495;52.208;5.158;2022-07-23T12:53:13;101918.31;;;24.90;39.13
65758;BME280;52495;52.208;5.158;2022-07-23T12:55:42;101918.03;;;25.09;40.69
65758;BME280;52495;52.208;5.158;2022-07-23T12:58:14;101907.81;;;25.31;39.56
65758;BME280;52495;52.208;5.158;2022-07-23T13:01:00;101914.13;;;25.58;40.16
65758;BME280;52495;52.208;5.158;2022-07-23T13:03:30;101916.63;;;25.74;39.71